Flagstaff, Arizona
Current Conditions -  °F | °C
As of 8:57 AM on Friday 28 Nov 2014 (Local Time) from KFLG Reporting Station
Clear Clear  
Wind Chill: 46°   Ceiling: Unl
Heat Index: 46°   Visibility: 10mi
Dew Point: 20°   Wind: 0mph
Humidity: 35%   Direction: NA
Pressure: 30.29"   Gusts: NA
Location:  35.2°N, 111.65°W
Report Text: KFLG 281557Z 00000KT 10SM CLR 08/M07 A3029 RMK AO2 SLP217 T00781067
Loading
Personal Weather Stations






























Interactive Weather Map New forecast layout! Learn more

10-Day Weather Forecast

Advertisements
Track Severe Weather on mobile